Terminal Aerodrome Forecast
Issued by NWS Greer, SC

Home | Current Version | Previous Version | Text Only | Print | Product List | Glossary On
Versions: 1 2 3 4 5 6 7 8 9 10 11 12 13 14 15 16 17 18 19 20 21 22 23 24 25 26 27 28 29 30 31 32 33 34 35 36 37 38 39 40 41 42 43 44 45 46 47 48 49 50
000
FTUS42 KGSP 291502 AAB
TAFCLT
TAF AMD
KCLT 291502Z 2915/3012 06005KT 6SM -RA BR OVC006
      TEMPO 2915/2916 10008KT SCT006 BKN050
     FM291600 06006KT 6SM -RA BR SCT006 OVC013
     FM291800 04005KT P6SM OVC011
      TEMPO 2918/2922 6SM -RA OVC010
     FM292300 05005KT 4SM BR OVC006=

USA.gov is the U.S. government's official web portal to all federal, state and local government web resources and services.